Airport ID:K0A0
Update Time (UTC):25/07/2021 00:01
Wind Speed (Knots):6
Wind Direction (Magnetic):30
Temperature (°C):22.1
Dew Point (°C):19
Humidity (%):83.2
Altimeter (inHg):30.14
Density Altitude (Feet):06500
Visibility (Miles):7
Clouds (Hundreds of feet):CLR
Present Weather:
METAR:METAR K0A0 250000Z AUTO 04006KT 7SM CLR 22/19 A3014 RMK AO2

The data displayed is for advisory purposes only and is not to be used for flight planning or operations.